Time;durP1;ratioP1;P1;durP2;ratioP2;P2;SDS_P1;SDS_P2;PMS_P1;PMS_P2;Temp;Humidity;BMP_temperature;BMP_pressure;BME280_temperature;BME280_humidity;BME280_pressure;Samples;Min_cycle;Max_cycle;Signal;HPM_P1;HPM_P2
2023/09/21 00:02:24;;;;;;;2.97;1.85;;;17.80;99.90;;;;;;4944654;29;20294;-80
2023/09/21 00:04:52;;;;;;;2.53;1.85;;;17.70;99.90;;;;;;4944312;29;20237;-81
2023/09/21 00:07:19;;;;;;;2.20;1.98;;;17.90;99.90;;;;;;4945025;29;20226;-81
2023/09/21 00:09:47;;;;;;;3.38;2.17;;;17.80;99.90;;;;;;4944349;29;20227;-80
2023/09/21 00:12:14;;;;;;;5.78;2.35;;;17.60;99.90;;;;;;4944209;29;20203;-80
2023/09/21 00:14:41;;;;;;;3.40;2.10;;;17.60;99.90;;;;;;4945259;29;20214;-81
2023/09/21 00:17:09;;;;;;;4.15;2.00;;;18.00;99.90;;;;;;4943782;29;20231;-81
2023/09/21 00:19:36;;;;;;;2.15;1.95;;;17.90;99.90;;;;;;4944385;29;20298;-80
2023/09/21 00:22:04;;;;;;;3.42;2.10;;;17.80;99.90;;;;;;4942558;29;20237;-80
2023/09/21 00:24:32;;;;;;;3.47;2.00;;;17.70;99.90;;;;;;4944180;29;20230;-80
2023/09/21 00:27:01;;;;;;;2.78;1.95;;;17.50;99.90;;;;;;4944966;29;20226;-81
2023/09/21 00:29:30;;;;;;;3.83;2.33;;;17.60;99.90;;;;;;4943898;29;20223;-80
2023/09/21 00:31:57;;;;;;;3.13;2.30;;;17.70;99.90;;;;;;4943846;29;20210;-80
2023/09/21 00:34:25;;;;;;;3.80;2.30;;;17.50;99.90;;;;;;4942485;29;20213;-80
2023/09/21 00:36:52;;;;;;;3.30;2.33;;;17.50;99.90;;;;;;4943868;29;20307;-81
2023/09/21 00:39:19;;;;;;;2.88;2.58;;;17.60;99.90;;;;;;4944135;29;20235;-80
2023/09/21 00:41:47;;;;;;;2.72;2.35;;;17.70;99.90;;;;;;4944323;29;20207;-80
2023/09/21 00:44:16;;;;;;;3.78;2.10;;;17.50;99.90;;;;;;4944060;29;20207;-80
2023/09/21 00:46:44;;;;;;;4.57;2.08;;;17.60;99.90;;;;;;4944049;29;20629;-80
2023/09/21 00:49:13;;;;;;;4.45;2.30;;;17.40;99.90;;;;;;4944007;29;20227;-81
2023/09/21 00:51:41;;;;;;;4.10;2.25;;;17.20;99.90;;;;;;4944207;29;20231;-81
2023/09/21 00:54:08;;;;;;;4.05;2.35;;;17.20;99.90;;;;;;4943564;29;20297;-81
2023/09/21 00:56:37;;;;;;;7.28;2.75;;;17.20;99.90;;;;;;4944085;29;20211;-80
2023/09/21 00:59:05;;;;;;;4.10;2.47;;;17.00;99.90;;;;;;4942971;29;20214;-81
2023/09/21 01:01:37;;;;;;;3.28;2.47;;;17.00;99.90;;;;;;4942788;29;20214;-81
2023/09/21 01:04:06;;;;;;;2.83;2.28;;;16.80;99.90;;;;;;4942622;29;20275;-80
2023/09/21 01:06:33;;;;;;;3.05;2.45;;;16.70;99.90;;;;;;4943052;29;20215;-80
2023/09/21 01:09:00;;;;;;;4.30;2.45;;;16.70;99.90;;;;;;4943151;29;20227;-81
2023/09/21 01:11:29;;;;;;;3.40;2.10;;;16.70;99.90;;;;;;4943640;29;20849;-80
2023/09/21 01:13:56;;;;;;;4.65;2.78;;;16.70;99.90;;;;;;4943620;29;20624;-80
2023/09/21 01:16:24;;;;;;;6.03;2.47;;;16.80;99.90;;;;;;4942191;29;20211;-81
2023/09/21 01:18:53;;;;;;;3.65;2.47;;;16.70;99.90;;;;;;4942600;29;20227;-80
2023/09/21 01:21:27;;;;;;;3.65;2.47;;;16.90;99.90;;;;;;4943708;29;20217;-81
2023/09/21 01:23:56;;;;;;;3.20;2.30;;;17.20;99.90;;;;;;4943283;29;20197;-80
2023/09/21 01:26:23;;;;;;;3.92;2.20;;;17.00;99.90;;;;;;4943045;29;20733;-81
2023/09/21 01:28:50;;;;;;;4.43;2.72;;;17.00;99.90;;;;;;4942252;29;20231;-80
2023/09/21 01:31:18;;;;;;;2.55;2.10;;;16.70;99.90;;;;;;4942380;29;20213;-81
2023/09/21 01:33:45;;;;;;;3.00;2.17;;;16.60;99.90;;;;;;4942945;29;20667;-81
2023/09/21 01:36:15;;;;;;;2.95;2.30;;;16.50;99.90;;;;;;4942975;29;20243;-81
2023/09/21 01:38:44;;;;;;;3.05;2.30;;;16.40;99.90;;;;;;4942813;29;20274;-81
2023/09/21 01:41:12;;;;;;;3.03;2.20;;;16.30;99.90;;;;;;4942881;29;20734;-81
2023/09/21 01:43:39;;;;;;;2.47;1.85;;;16.20;99.90;;;;;;4942919;29;20203;-80
2023/09/21 01:46:06;;;;;;;2.88;2.10;;;16.20;99.90;;;;;;4942398;29;20209;-81
2023/09/21 01:48:33;;;;;;;2.92;1.95;;;16.10;99.90;;;;;;4942431;29;20230;-82
2023/09/21 01:51:00;;;;;;;3.45;2.63;;;16.10;99.90;;;;;;4942008;29;20211;-80
2023/09/21 01:53:28;;;;;;;3.30;2.38;;;16.00;99.90;;;;;;4942373;29;20577;-81
2023/09/21 01:55:55;;;;;;;3.38;2.17;;;16.00;99.90;;;;;;4942649;29;20207;-80
2023/09/21 01:58:23;;;;;;;4.25;2.85;;;16.10;99.90;;;;;;4942492;29;20231;-81
2023/09/21 02:00:51;;;;;;;5.30;2.40;;;16.00;99.90;;;;;;4942180;29;20207;-80
2023/09/21 02:03:19;;;;;;;4.18;2.33;;;16.30;99.90;;;;;;4942691;29;20210;-81
2023/09/21 02:05:47;;;;;;;2.53;2.33;;;16.40;99.90;;;;;;4941378;29;20698;-80
2023/09/21 02:08:16;;;;;;;3.88;2.17;;;16.60;99.90;;;;;;4941427;29;20647;-81
2023/09/21 02:10:44;;;;;;;3.85;2.53;;;16.60;99.90;;;;;;4942307;29;20231;-81
2023/09/21 02:13:11;;;;;;;4.03;2.20;;;16.70;99.90;;;;;;4941649;29;20219;-80
2023/09/21 02:15:40;;;;;;;2.88;2.28;;;16.60;99.90;;;;;;4941523;29;20270;-80
2023/09/21 02:18:13;;;;;;;2.83;2.28;;;17.00;99.90;;;;;;4942039;29;20266;-81
2023/09/21 02:20:44;;;;;;;2.53;2.20;;;16.70;99.90;;;;;;4941982;29;20273;-80
2023/09/21 02:23:12;;;;;;;4.13;2.53;;;16.80;99.90;;;;;;4941611;29;20191;-80
2023/09/21 02:25:40;;;;;;;3.60;2.50;;;16.70;99.90;;;;;;4941240;29;20234;-81
2023/09/21 02:28:08;;;;;;;3.33;2.28;;;16.40;99.90;;;;;;4942464;29;20227;-81
2023/09/21 02:30:36;;;;;;;4.22;2.65;;;16.40;99.90;;;;;;4941364;29;20227;-80
2023/09/21 02:33:05;;;;;;;3.85;2.45;;;16.50;99.90;;;;;;4942070;29;20202;-81
2023/09/21 02:35:34;;;;;;;5.43;2.65;;;16.60;99.90;;;;;;4942863;29;20238;-81
2023/09/21 02:38:03;;;;;;;3.25;2.80;;;16.50;99.90;;;;;;4941641;29;20262;-81
2023/09/21 02:40:30;;;;;;;6.90;4.07;;;16.40;99.90;;;;;;4942262;29;20258;-80
2023/09/21 02:42:57;;;;;;;5.22;2.80;;;16.50;99.90;;;;;;4942631;29;20218;-81
2023/09/21 02:45:25;;;;;;;7.38;3.38;;;16.60;99.90;;;;;;4942894;29;20277;-80
2023/09/21 02:47:54;;;;;;;5.00;3.00;;;16.50;99.90;;;;;;4941132;29;20263;-80
2023/09/21 02:50:25;;;;;;;3.65;2.75;;;16.40;99.90;;;;;;4941112;29;20269;-80
2023/09/21 02:52:55;;;;;;;5.40;2.92;;;16.40;99.90;;;;;;4941167;29;20195;-81
2023/09/21 02:55:23;;;;;;;7.68;3.20;;;16.30;99.90;;;;;;4941459;29;20203;-80
2023/09/21 02:57:57;;;;;;;4.80;2.42;;;16.30;99.90;;;;;;4940909;29;20223;-81
2023/09/21 03:00:27;;;;;;;4.07;2.58;;;16.70;99.90;;;;;;4940416;29;20206;-80
2023/09/21 03:02:55;;;;;;;3.97;2.53;;;16.40;99.90;;;;;;4940610;29;20231;-80
2023/09/21 03:05:25;;;;;;;3.53;2.50;;;16.40;99.90;;;;;;4940533;29;20242;-81
2023/09/21 03:07:52;;;;;;;3.20;2.40;;;16.50;99.90;;;;;;4940284;29;20247;-80
2023/09/21 03:10:19;;;;;;;2.90;2.42;;;16.40;99.90;;;;;;4940343;29;20223;-81
2023/09/21 03:12:48;;;;;;;3.88;2.65;;;16.30;99.90;;;;;;4940151;29;20217;-80
2023/09/21 03:15:18;;;;;;;3.55;2.63;;;16.20;99.90;;;;;;4940607;29;20214;-81
2023/09/21 03:17:45;;;;;;;4.45;2.60;;;16.10;99.90;;;;;;4950274;29;20282;-81
2023/09/21 03:20:15;;;;;;;2.90;2.60;;;16.10;99.90;;;;;;4959743;29;20297;-83
2023/09/21 03:22:43;;;;;;;3.53;2.50;;;16.20;99.90;;;;;;4959748;28;20202;-81
2023/09/21 03:25:15;;;;;;;3.30;2.55;;;16.10;99.90;;;;;;4959592;29;20407;-80
2023/09/21 03:27:42;;;;;;;4.85;3.00;;;16.10;99.90;;;;;;4959896;29;20792;-80
2023/09/21 03:30:11;;;;;;;4.65;2.45;;;15.90;99.90;;;;;;4958817;29;20753;-80
2023/09/21 03:32:40;;;;;;;5.20;2.72;;;15.80;99.90;;;;;;4958780;29;20206;-80
2023/09/21 03:35:10;;;;;;;3.92;2.72;;;15.90;99.90;;;;;;4957808;29;20289;-81
2023/09/21 03:37:38;;;;;;;3.30;2.25;;;15.70;99.90;;;;;;4959277;29;20776;-81
2023/09/21 03:40:07;;;;;;;5.13;2.47;;;15.80;99.90;;;;;;4959277;28;20206;-82
2023/09/21 03:42:35;;;;;;;6.55;2.95;;;15.80;99.90;;;;;;4959148;28;20614;-79
2023/09/21 03:45:02;;;;;;;3.35;2.70;;;15.70;99.90;;;;;;4958644;29;20207;-79
2023/09/21 03:47:29;;;;;;;8.57;2.85;;;15.90;99.90;;;;;;4958405;29;20273;-80
2023/09/21 03:49:58;;;;;;;5.47;3.03;;;15.80;99.90;;;;;;4958832;29;20233;-81
2023/09/21 03:52:25;;;;;;;3.80;2.70;;;15.60;99.90;;;;;;4958952;29;20210;-80
2023/09/21 03:54:53;;;;;;;3.70;2.67;;;15.50;99.90;;;;;;4958569;29;20202;-80
2023/09/21 03:57:21;;;;;;;5.50;2.75;;;15.60;99.90;;;;;;4959309;29;20226;-79
2023/09/21 03:59:48;;;;;;;5.22;2.88;;;16.20;99.90;;;;;;4958677;29;20202;-80
2023/09/21 04:02:15;;;;;;;4.65;2.60;;;16.10;99.90;;;;;;4958680;29;20203;-81
2023/09/21 04:04:43;;;;;;;3.40;2.80;;;16.00;99.90;;;;;;4958208;29;20296;-80
2023/09/21 04:07:12;;;;;;;3.20;2.60;;;16.00;99.90;;;;;;4939864;29;20290;-80
2023/09/21 04:09:39;;;;;;;4.57;2.53;;;16.00;99.90;;;;;;4940964;29;20219;-79
2023/09/21 04:12:06;;;;;;;3.58;2.70;;;16.00;99.90;;;;;;4943102;29;20302;-81
2023/09/21 04:14:34;;;;;;;4.75;2.90;;;16.10;99.90;;;;;;4943326;29;20211;-79
2023/09/21 04:17:02;;;;;;;2.75;2.30;;;16.10;99.90;;;;;;4943259;29;20602;-81
2023/09/21 04:19:29;;;;;;;3.28;2.78;;;15.90;99.90;;;;;;4943146;29;20211;-80
2023/09/21 04:21:56;;;;;;;3.25;2.65;;;15.90;99.90;;;;;;4942881;29;20221;-81
2023/09/21 04:24:23;;;;;;;3.92;2.70;;;15.80;99.90;;;;;;4943282;29;20273;-81
2023/09/21 04:26:50;;;;;;;5.38;2.50;;;15.70;99.90;;;;;;4942780;29;20468;-80
2023/09/21 04:29:17;;;;;;;4.47;2.85;;;15.70;99.90;;;;;;4942911;29;20221;-80
2023/09/21 04:31:45;;;;;;;4.88;2.80;;;15.50;99.90;;;;;;4943038;29;20303;-81
2023/09/21 04:34:12;;;;;;;4.63;2.88;;;15.60;99.90;;;;;;4941621;29;20336;-80
2023/09/21 04:36:39;;;;;;;4.55;2.85;;;15.70;99.90;;;;;;4942146;29;20218;-80
2023/09/21 04:39:05;;;;;;;3.53;2.90;;;15.70;99.90;;;;;;4942740;29;20207;-80
2023/09/21 04:41:33;;;;;;;3.22;2.60;;;15.70;99.90;;;;;;4941636;29;20266;-80
2023/09/21 04:44:02;;;;;;;5.35;2.88;;;16.00;99.90;;;;;;4942914;29;20211;-80
2023/09/21 04:46:31;;;;;;;3.10;2.28;;;15.90;99.90;;;;;;4941995;29;20222;-80
2023/09/21 04:48:59;;;;;;;4.97;3.30;;;16.00;99.90;;;;;;4942043;29;20227;-80
2023/09/21 04:51:26;;;;;;;6.60;2.60;;;16.00;99.90;;;;;;4942520;29;20294;-80
2023/09/21 04:53:52;;;;;;;4.75;2.70;;;15.80;99.90;;;;;;4942492;29;20214;-80
2023/09/21 04:56:19;;;;;;;5.65;2.53;;;15.90;99.90;;;;;;4942224;29;20225;-80
2023/09/21 04:58:47;;;;;;;5.47;3.17;;;15.70;99.90;;;;;;4942299;29;20258;-81
2023/09/21 05:01:15;;;;;;;5.70;2.90;;;15.70;99.90;;;;;;4942218;29;20225;-81
2023/09/21 05:03:42;;;;;;;5.97;3.30;;;15.60;99.90;;;;;;4942221;29;20473;-79
2023/09/21 05:06:10;;;;;;;6.78;3.20;;;15.80;99.90;;;;;;4941822;29;20581;-81
2023/09/21 05:08:37;;;;;;;6.28;3.20;;;15.80;99.90;;;;;;4941045;29;20254;-80
2023/09/21 05:11:04;;;;;;;6.45;3.05;;;15.90;99.90;;;;;;4939485;29;20314;-79
2023/09/21 05:13:31;;;;;;;5.15;3.00;;;15.70;99.90;;;;;;4940327;29;20203;-80
2023/09/21 05:15:59;;;;;;;3.95;2.90;;;15.80;99.90;;;;;;4940976;29;20286;-80
2023/09/21 05:18:27;;;;;;;3.83;2.63;;;15.80;99.90;;;;;;4941403;29;20227;-80
2023/09/21 05:20:54;;;;;;;7.32;2.70;;;15.90;99.90;;;;;;4941213;29;20211;-80
2023/09/21 05:23:22;;;;;;;4.35;2.60;;;16.10;99.90;;;;;;4941522;29;20199;-80
2023/09/21 05:25:48;;;;;;;2.92;2.55;;;16.20;99.90;;;;;;4940980;29;20305;-80
2023/09/21 05:28:16;;;;;;;4.00;2.67;;;16.50;99.90;;;;;;4941786;29;20285;-80
2023/09/21 05:30:43;;;;;;;3.45;2.67;;;16.70;99.90;;;;;;4941080;29;20295;-80
2023/09/21 05:33:10;;;;;;;5.13;2.95;;;16.70;99.90;;;;;;4941076;29;20235;-79
2023/09/21 05:35:37;;;;;;;3.25;2.90;;;16.60;99.90;;;;;;4940934;29;20306;-79
2023/09/21 05:38:05;;;;;;;5.93;3.55;;;16.70;99.90;;;;;;4941327;29;20235;-80
2023/09/21 05:40:34;;;;;;;5.07;3.10;;;17.00;99.90;;;;;;4941191;29;20278;-80
2023/09/21 05:43:01;;;;;;;3.40;2.80;;;17.00;99.90;;;;;;4941708;29;20214;-79
2023/09/21 05:45:28;;;;;;;3.30;2.88;;;16.70;99.90;;;;;;4940812;29;20651;-79
2023/09/21 05:47:54;;;;;;;5.95;2.80;;;16.60;99.90;;;;;;4940451;29;20245;-80
2023/09/21 05:50:22;;;;;;;3.92;2.65;;;17.00;99.90;;;;;;4939846;29;20721;-80
2023/09/21 05:52:49;;;;;;;2.72;2.40;;;16.80;99.90;;;;;;4940674;29;20208;-80
2023/09/21 05:55:16;;;;;;;3.78;2.35;;;16.70;99.90;;;;;;4940274;29;20201;-80
2023/09/21 05:57:47;;;;;;;3.30;2.58;;;16.60;99.90;;;;;;4940728;29;20600;-79
2023/09/21 06:00:15;;;;;;;3.75;2.60;;;16.70;99.90;;;;;;4941007;29;20572;-81
2023/09/21 06:02:42;;;;;;;2.78;2.45;;;16.50;99.90;;;;;;4940490;29;20213;-80
2023/09/21 06:05:10;;;;;;;3.15;2.75;;;16.60;99.90;;;;;;4940294;29;20217;-79
2023/09/21 06:07:36;;;;;;;3.97;2.72;;;16.50;99.90;;;;;;4940172;29;20227;-80
2023/09/21 06:10:05;;;;;;;3.05;2.60;;;16.40;99.90;;;;;;4940367;29;20239;-79
2023/09/21 06:12:32;;;;;;;3.17;2.80;;;16.30;99.90;;;;;;4940171;29;20207;-79
2023/09/21 06:15:00;;;;;;;4.05;2.92;;;16.40;99.90;;;;;;4940211;29;20310;-79
2023/09/21 06:17:28;;;;;;;6.40;3.10;;;16.30;99.90;;;;;;4940093;29;20313;-79
2023/09/21 06:19:55;;;;;;;8.00;4.00;;;16.30;99.90;;;;;;4939269;29;20251;-80
2023/09/21 06:22:22;;;;;;;8.63;4.80;;;16.30;99.90;;;;;;4940384;29;20230;-79
2023/09/21 06:24:49;;;;;;;5.10;3.85;;;16.50;99.90;;;;;;4939395;29;20207;-79
2023/09/21 06:27:18;;;;;;;7.35;4.22;;;16.60;99.90;;;;;;4920274;29;20236;-79
2023/09/21 06:29:45;;;;;;;5.57;3.95;;;16.70;99.90;;;;;;4937332;29;20234;-80
2023/09/21 06:32:13;;;;;;;6.70;3.50;;;16.80;99.90;;;;;;4940472;29;20712;-80
2023/09/21 06:34:41;;;;;;;3.97;2.92;;;17.00;99.90;;;;;;4940637;29;20259;-80
2023/09/21 06:37:08;;;;;;;3.58;2.70;;;17.10;99.90;;;;;;4940602;29;20235;-80
2023/09/21 06:39:35;;;;;;;3.22;2.60;;;17.00;99.90;;;;;;4940522;29;20227;-81
2023/09/21 06:42:02;;;;;;;4.53;2.95;;;17.00;99.90;;;;;;4940533;29;20570;-80
2023/09/21 06:44:29;;;;;;;9.07;3.00;;;17.00;99.90;;;;;;4940314;29;20202;-81
2023/09/21 06:46:56;;;;;;;3.80;2.60;;;17.20;99.90;;;;;;4939360;29;20258;-80
2023/09/21 06:49:26;;;;;;;4.55;3.22;;;17.30;99.90;;;;;;4940428;29;20617;-80
2023/09/21 06:51:55;;;;;;;3.70;2.55;;;17.40;99.90;;;;;;4947874;29;20234;-80
2023/09/21 06:54:23;;;;;;;5.88;3.15;;;17.60;99.90;;;;;;4959591;29;20256;-80
2023/09/21 06:56:51;;;;;;;5.22;2.38;;;17.60;99.90;;;;;;4959058;29;20313;-80
2023/09/21 06:59:17;;;;;;;2.75;2.45;;;17.70;99.90;;;;;;4959595;28;20265;-81
2023/09/21 07:01:44;;;;;;;4.45;2.65;;;17.70;99.90;;;;;;4957732;29;20206;-80
2023/09/21 07:04:11;;;;;;;5.32;2.33;;;18.00;99.90;;;;;;4958992;29;20212;-80
2023/09/21 07:06:40;;;;;;;6.18;2.53;;;18.40;99.90;;;;;;4948117;29;20238;-80
2023/09/21 07:09:09;;;;;;;2.85;2.40;;;18.50;99.90;;;;;;4940337;29;20211;-80
2023/09/21 07:11:35;;;;;;;2.95;2.20;;;18.50;99.90;;;;;;4939770;29;20222;-80
2023/09/21 07:14:03;;;;;;;4.03;2.20;;;18.40;99.90;;;;;;4940189;29;20678;-80
2023/09/21 07:16:30;;;;;;;3.45;2.30;;;18.60;99.90;;;;;;4939495;29;20207;-80
2023/09/21 07:18:57;;;;;;;3.03;2.10;;;18.80;99.90;;;;;;4939609;29;20227;-81
2023/09/21 07:21:24;;;;;;;3.70;2.38;;;18.70;99.90;;;;;;4939919;29;20293;-81
2023/09/21 07:23:52;;;;;;;4.20;1.85;;;18.90;99.90;;;;;;4940083;29;20207;-80
2023/09/21 07:26:19;;;;;;;4.88;2.25;;;19.00;99.90;;;;;;4939218;29;20235;-80
2023/09/21 07:28:46;;;;;;;3.15;2.20;;;19.10;99.90;;;;;;4939713;29;20294;-81
2023/09/21 07:31:13;;;;;;;2.30;2.10;;;19.30;99.90;;;;;;4939757;29;20243;-81
2023/09/21 07:33:40;;;;;;;2.33;2.10;;;19.80;99.90;;;;;;4939440;29;20686;-81
2023/09/21 07:36:08;;;;;;;2.45;1.90;;;20.10;99.90;;;;;;4938658;29;20262;-81
2023/09/21 07:38:35;;;;;;;2.63;2.10;;;20.30;99.90;;;;;;4938655;29;20330;-80
2023/09/21 07:41:06;;;;;;;4.13;2.25;;;20.60;99.90;;;;;;4939527;29;20234;-80
2023/09/21 07:43:33;;;;;;;2.13;1.90;;;21.00;99.90;;;;;;4926241;29;20195;-79
2023/09/21 07:45:59;;;;;;;3.20;2.20;;;21.00;99.90;;;;;;4942673;29;20270;-80
2023/09/21 07:48:27;;;;;;;2.00;1.77;;;20.60;99.90;;;;;;4940805;29;20226;-80
2023/09/21 07:50:55;;;;;;;2.03;1.83;;;20.70;99.90;;;;;;4924165;29;20227;-79
2023/09/21 07:53:22;;;;;;;2.45;1.90;;;20.70;99.90;;;;;;4924664;29;20281;-81
2023/09/21 07:55:59;;;;;;;2.90;2.20;;;20.80;99.90;;;;;;4942756;29;20289;-81
2023/09/21 07:58:27;;;;;;;2.40;2.20;;;20.80;99.90;;;;;;4942706;29;20218;-80
2023/09/21 08:00:56;;;;;;;2.97;2.15;;;20.80;99.90;;;;;;4941888;29;20233;-81
2023/09/21 08:03:25;;;;;;;3.50;2.30;;;21.10;99.90;;;;;;4942092;29;20214;-80
2023/09/21 08:05:53;;;;;;;4.07;2.17;;;21.00;99.90;;;;;;4943148;29;20203;-79
2023/09/21 08:08:20;;;;;;;2.30;2.10;;;21.00;99.90;;;;;;4942985;29;20233;-80
2023/09/21 08:10:47;;;;;;;2.75;2.10;;;21.00;99.90;;;;;;4943054;29;20223;-81
2023/09/21 08:13:14;;;;;;;3.63;2.47;;;21.00;99.90;;;;;;4942956;29;20234;-80
2023/09/21 08:15:42;;;;;;;4.55;2.25;;;21.10;99.90;;;;;;4942880;29;20555;-79
2023/09/21 08:18:10;;;;;;;4.03;2.13;;;21.10;99.90;;;;;;4942981;29;20269;-80
2023/09/21 08:20:39;;;;;;;4.18;2.78;;;21.20;99.90;;;;;;4942720;29;20207;-81
2023/09/21 08:23:07;;;;;;;2.97;2.03;;;21.20;99.90;;;;;;4942773;29;20206;-81
2023/09/21 08:25:35;;;;;;;3.88;2.67;;;21.20;99.90;;;;;;4942685;29;20590;-81
2023/09/21 08:28:03;;;;;;;4.90;2.50;;;21.20;99.90;;;;;;4942454;29;20390;-80
2023/09/21 08:30:30;;;;;;;3.70;2.20;;;21.20;99.90;;;;;;4942316;29;20682;-80
2023/09/21 08:32:59;;;;;;;6.18;2.78;;;21.30;99.90;;;;;;4941608;29;20231;-80
2023/09/21 08:35:26;;;;;;;3.72;2.15;;;21.20;99.90;;;;;;4942204;29;20219;-80
2023/09/21 08:37:53;;;;;;;2.95;2.25;;;21.20;99.90;;;;;;4941985;29;20242;-81
2023/09/21 08:40:23;;;;;;;4.85;2.40;;;21.30;99.90;;;;;;4942622;29;20593;-80
2023/09/21 08:42:53;;;;;;;3.88;2.65;;;21.40;99.90;;;;;;4941847;29;20231;-80
2023/09/21 08:45:23;;;;;;;2.40;2.00;;;21.40;99.90;;;;;;4941720;29;20195;-80
2023/09/21 08:47:50;;;;;;;2.10;1.90;;;21.30;99.90;;;;;;4942001;29;20231;-79
2023/09/21 08:50:19;;;;;;;4.90;2.25;;;21.30;99.90;;;;;;4942762;29;20218;-80
2023/09/21 08:52:48;;;;;;;3.83;2.50;;;21.30;99.90;;;;;;4942480;29;20298;-80
2023/09/21 08:55:16;;;;;;;5.32;2.33;;;21.30;99.90;;;;;;4942397;29;20203;-80
2023/09/21 08:57:43;;;;;;;3.35;2.30;;;21.30;99.90;;;;;;4941895;29;20243;-80
2023/09/21 09:00:11;;;;;;;4.43;2.60;;;21.30;99.90;;;;;;4941582;29;20659;-80
2023/09/21 09:02:38;;;;;;;4.15;2.65;;;21.20;99.90;;;;;;4941403;29;20243;-80
2023/09/21 09:05:07;;;;;;;4.82;2.47;;;21.10;99.90;;;;;;4940676;29;20702;-80
2023/09/21 09:07:39;;;;;;;3.90;2.20;;;21.10;99.90;;;;;;4940956;29;20602;-80
2023/09/21 09:10:07;;;;;;;5.03;2.40;;;21.10;99.90;;;;;;4941449;29;20640;-81
2023/09/21 09:12:33;;;;;;;4.95;2.35;;;21.10;99.90;;;;;;4941265;29;20250;-80
2023/09/21 09:15:02;;;;;;;3.05;2.50;;;21.20;99.90;;;;;;4940933;29;20576;-79
2023/09/21 09:17:30;;;;;;;2.97;1.98;;;21.20;99.90;;;;;;4941748;29;20227;-80
2023/09/21 09:20:01;;;;;;;4.68;2.47;;;21.30;99.90;;;;;;4941054;29;20638;-80
2023/09/21 09:22:31;;;;;;;2.58;2.30;;;21.50;99.90;;;;;;4941349;29;20246;-80
2023/09/21 09:25:04;;;;;;;3.97;2.25;;;21.70;99.90;;;;;;4940979;29;20711;-79
2023/09/21 09:27:31;;;;;;;6.18;2.40;;;21.80;99.90;;;;;;4941570;29;20338;-79
2023/09/21 09:29:59;;;;;;;4.38;2.50;;;22.00;99.90;;;;;;4941976;29;20211;-79
2023/09/21 09:32:34;;;;;;;5.00;3.20;;;22.00;99.90;;;;;;4941352;29;20226;-79
2023/09/21 09:35:02;;;;;;;3.58;2.28;;;22.00;99.90;;;;;;4941116;29;20195;-80
2023/09/21 09:37:28;;;;;;;6.07;2.83;;;22.00;99.90;;;;;;4940483;29;20681;-80
2023/09/21 09:39:56;;;;;;;4.07;1.95;;;21.90;99.90;;;;;;4940436;29;20230;-80
2023/09/21 09:42:27;;;;;;;2.10;1.90;;;21.90;99.90;;;;;;4941397;29;20202;-81
2023/09/21 09:44:59;;;;;;;2.95;2.25;;;22.00;99.90;;;;;;4942473;29;20647;-81
2023/09/21 09:47:30;;;;;;;2.28;2.08;;;21.90;99.90;;;;;;4941354;29;20278;-81
2023/09/21 09:49:57;;;;;;;5.05;2.50;;;21.80;99.90;;;;;;4942164;29;20215;-81
2023/09/21 09:52:25;;;;;;;2.30;1.75;;;22.00;99.90;;;;;;4942066;29;20233;-81
2023/09/21 09:54:53;;;;;;;2.00;1.90;;;22.30;99.90;;;;;;4941796;29;20226;-82
2023/09/21 09:57:22;;;;;;;2.10;1.90;;;23.00;99.90;;;;;;4951321;29;20598;-81
2023/09/21 09:59:50;;;;;;;2.38;1.95;;;23.80;99.90;;;;;;4947492;29;20207;-81
2023/09/21 10:02:19;;;;;;;3.15;1.90;;;23.80;99.90;;;;;;4941478;29;20201;-81
2023/09/21 10:04:47;;;;;;;3.38;1.98;;;24.00;99.90;;;;;;4941137;29;20262;-82
2023/09/21 10:07:16;;;;;;;2.53;2.00;;;24.40;99.90;;;;;;4941104;29;20314;-80
2023/09/21 10:09:44;;;;;;;2.05;1.80;;;24.40;99.90;;;;;;4941633;29;20691;-80
2023/09/21 10:12:12;;;;;;;3.65;2.28;;;24.50;99.90;;;;;;4941267;29;20231;-81
2023/09/21 10:14:43;;;;;;;3.60;1.98;;;24.30;99.90;;;;;;4941483;29;20724;-80
2023/09/21 10:17:14;;;;;;;2.13;1.92;;;24.40;99.90;;;;;;4940637;29;20227;-81
2023/09/21 10:19:43;;;;;;;2.90;2.13;;;24.40;99.90;;;;;;4941347;29;20734;-81
2023/09/21 10:22:23;;;;;;;4.60;2.15;;;24.00;99.90;;;;;;4940995;29;20266;-81
2023/09/21 10:24:51;;;;;;;2.67;1.90;;;23.80;99.90;;;;;;4940340;29;20225;-81
2023/09/21 10:27:23;;;;;;;3.72;2.00;;;23.60;99.90;;;;;;4924737;29;20227;-81
2023/09/21 10:29:54;;;;;;;2.90;1.92;;;23.60;99.90;;;;;;4922131;29;20192;-81
2023/09/21 10:32:24;;;;;;;4.22;1.92;;;23.50;99.90;;;;;;4920764;29;20215;-81
2023/09/21 10:34:52;;;;;;;2.28;2.08;;;23.70;99.90;;;;;;4921318;29;20192;-81
2023/09/21 10:37:26;;;;;;;4.63;2.47;;;24.00;99.90;;;;;;4921702;29;20231;-81
2023/09/21 10:39:58;;;;;;;2.08;1.90;;;23.70;99.90;;;;;;4921160;29;20203;-81
2023/09/21 10:42:34;;;;;;;4.22;2.30;;;23.60;99.90;;;;;;4921679;29;20191;-82
2023/09/21 10:45:02;;;;;;;2.05;1.77;;;23.80;99.90;;;;;;4935677;29;20207;-81
2023/09/21 10:47:35;;;;;;;3.17;2.55;;;23.90;99.90;;;;;;4940125;29;20230;-81
2023/09/21 10:50:03;;;;;;;3.08;2.10;;;24.10;99.90;;;;;;4934140;29;20207;-81
2023/09/21 10:52:31;;;;;;;3.22;1.90;;;24.00;99.90;;;;;;4921139;29;20238;-80
2023/09/21 10:54:58;;;;;;;2.58;1.70;;;24.10;99.90;;;;;;4933966;29;20217;-81
2023/09/21 10:57:26;;;;;;;3.65;2.20;;;23.90;99.90;;;;;;4939874;29;20262;-80
2023/09/21 10:59:55;;;;;;;4.25;1.98;;;23.80;99.90;;;;;;4939882;29;20214;-81
2023/09/21 11:02:23;;;;;;;4.57;1.73;;;23.80;99.90;;;;;;4940398;29;20238;-81
2023/09/21 11:04:52;;;;;;;4.03;1.80;;;24.10;99.90;;;;;;4939747;29;20206;-80
2023/09/21 11:07:21;;;;;;;2.90;1.70;;;23.90;99.90;;;;;;4939209;29;20231;-81
2023/09/21 11:09:48;;;;;;;2.78;1.83;;;24.10;99.90;;;;;;4939782;29;20659;-81
2023/09/21 11:12:17;;;;;;;3.80;1.98;;;24.00;99.90;;;;;;4938379;29;20305;-81
2023/09/21 11:14:45;;;;;;;2.58;1.83;;;23.80;99.90;;;;;;4935765;29;20667;-80
2023/09/21 11:17:13;;;;;;;2.95;1.83;;;23.80;99.90;;;;;;4959684;29;20226;-80
2023/09/21 11:19:42;;;;;;;1.98;1.70;;;23.80;99.90;;;;;;4959051;28;20235;-81
2023/09/21 11:22:12;;;;;;;2.28;1.83;;;23.70;99.90;;;;;;4959130;29;20206;-80
2023/09/21 11:24:39;;;;;;;3.38;2.00;;;23.60;99.90;;;;;;4947481;29;20202;-81
2023/09/21 11:27:09;;;;;;;3.30;1.90;;;23.40;99.90;;;;;;4939471;29;20233;-81
2023/09/21 11:29:36;;;;;;;2.22;2.00;;;23.40;99.90;;;;;;4940055;29;20203;-81
2023/09/21 11:32:05;;;;;;;2.42;1.90;;;23.40;99.90;;;;;;4939425;29;20254;-81
2023/09/21 11:34:39;;;;;;;2.65;2.08;;;23.50;99.90;;;;;;4940123;29;20666;-81
2023/09/21 11:37:08;;;;;;;2.13;1.80;;;23.50;99.90;;;;;;4939740;29;20235;-81
2023/09/21 11:39:38;;;;;;;3.13;2.25;;;23.50;99.90;;;;;;4939038;29;20630;-82
2023/09/21 11:42:08;;;;;;;1.90;1.80;;;23.60;99.90;;;;;;4938925;29;20274;-82
2023/09/21 11:44:37;;;;;;;3.22;1.85;;;23.50;99.90;;;;;;4939013;29;20491;-82
2023/09/21 11:47:09;;;;;;;2.35;2.10;;;23.60;99.90;;;;;;4939649;29;20695;-81
2023/09/21 11:49:37;;;;;;;4.70;2.30;;;23.80;99.90;;;;;;4939502;29;20211;-82
2023/09/21 11:52:04;;;;;;;4.15;1.90;;;24.20;99.90;;;;;;4938776;29;20237;-82
2023/09/21 11:54:34;;;;;;;1.98;1.85;;;24.20;99.90;;;;;;4938455;29;20215;-81
2023/09/21 11:57:04;;;;;;;4.03;1.90;;;24.00;99.90;;;;;;4939156;29;20223;-81
2023/09/21 11:59:33;;;;;;;2.03;1.83;;;23.90;99.90;;;;;;4939450;29;20218;-81
2023/09/21 12:02:03;;;;;;;2.10;1.77;;;23.90;99.90;;;;;;4938834;29;20199;-81
2023/09/21 12:04:31;;;;;;;2.35;2.10;;;23.70;99.90;;;;;;4938533;29;20207;-81
2023/09/21 12:06:59;;;;;;;2.20;1.98;;;23.70;99.90;;;;;;4939553;29;20223;-81
2023/09/21 12:09:26;;;;;;;3.40;2.08;;;23.60;99.90;;;;;;4938608;29;20207;-81
2023/09/21 12:11:54;;;;;;;3.15;2.22;;;23.50;99.90;;;;;;4938623;29;20235;-82
2023/09/21 12:14:23;;;;;;;3.75;2.00;;;23.40;99.90;;;;;;4938915;29;20306;-82
2023/09/21 12:16:51;;;;;;;3.08;1.98;;;23.20;99.90;;;;;;4938644;29;20199;-81
2023/09/21 12:19:18;;;;;;;2.72;1.98;;;23.20;99.90;;;;;;4939169;29;20297;-81
2023/09/21 12:21:47;;;;;;;3.92;1.80;;;23.10;99.90;;;;;;4939149;29;20211;-81
2023/09/21 12:24:14;;;;;;;4.80;1.98;;;22.90;99.90;;;;;;4938936;29;20207;-81
2023/09/21 12:26:42;;;;;;;2.55;1.85;;;22.40;99.90;;;;;;4939116;29;20207;-81
2023/09/21 12:29:09;;;;;;;2.67;1.60;;;21.90;99.90;;;;;;4938707;29;20218;-81
2023/09/21 12:31:37;;;;;;;3.45;2.05;;;21.40;99.90;;;;;;4942152;29;20222;-81
2023/09/21 12:34:04;;;;;;;2.88;2.28;;;21.00;99.90;;;;;;4941789;29;20237;-82
2023/09/21 12:36:31;;;;;;;2.83;1.92;;;20.70;99.90;;;;;;4941894;29;20674;-81
2023/09/21 12:38:58;;;;;;;3.05;2.00;;;20.60;99.90;;;;;;4941755;29;20279;-81
2023/09/21 12:41:26;;;;;;;5.78;2.58;;;20.50;99.90;;;;;;4942876;29;20307;-81
2023/09/21 12:43:53;;;;;;;2.35;1.90;;;20.50;99.90;;;;;;4943024;29;20207;-81
2023/09/21 12:46:20;;;;;;;2.95;2.15;;;20.30;99.90;;;;;;4942987;29;20206;-81
2023/09/21 12:48:48;;;;;;;2.95;2.17;;;20.40;99.90;;;;;;4942442;29;20229;-82
2023/09/21 12:51:16;;;;;;;3.17;2.42;;;20.30;99.90;;;;;;4942721;29;20613;-81
2023/09/21 12:53:43;;;;;;;3.38;2.45;;;20.20;99.90;;;;;;4942060;29;20223;-81